sensor_id;sensor_type;location;lat;lon;timestamp;P1;durP1;ratioP1;P2;durP2;ratioP2
34499;SDS011;20745;50.882;6.962;2022-08-05T00:00:54;10.60;;;3.50;;
34499;SDS011;20745;50.882;6.962;2022-08-05T00:03:49;14.00;;;3.63;;
34499;SDS011;20745;50.882;6.962;2022-08-05T00:06:22;10.75;;;2.97;;
34499;SDS011;20745;50.882;6.962;2022-08-05T00:08:59;11.80;;;3.08;;
34499;SDS011;20745;50.882;6.962;2022-08-05T00:11:27;12.85;;;3.15;;
34499;SDS011;20745;50.882;6.962;2022-08-05T00:14:06;14.20;;;3.70;;
34499;SDS011;20745;50.882;6.962;2022-08-05T00:16:45;11.63;;;3.25;;
34499;SDS011;20745;50.882;6.962;2022-08-05T00:19:38;11.85;;;3.17;;
34499;SDS011;20745;50.882;6.962;2022-08-05T00:22:25;9.75;;;3.30;;
34499;SDS011;20745;50.882;6.962;2022-08-05T00:25:10;13.07;;;3.13;;
34499;SDS011;20745;50.882;6.962;2022-08-05T00:27:38;11.68;;;3.47;;
34499;SDS011;20745;50.882;6.962;2022-08-05T00:30:26;9.93;;;3.42;;
34499;SDS011;20745;50.882;6.962;2022-08-05T00:33:03;10.90;;;3.20;;
34499;SDS011;20745;50.882;6.962;2022-08-05T00:35:30;11.10;;;3.25;;
34499;SDS011;20745;50.882;6.962;2022-08-05T00:37:59;10.18;;;2.95;;
34499;SDS011;20745;50.882;6.962;2022-08-05T00:40:44;14.35;;;3.67;;
34499;SDS011;20745;50.882;6.962;2022-08-05T00:43:19;11.10;;;3.60;;
34499;SDS011;20745;50.882;6.962;2022-08-05T00:46:05;12.32;;;3.88;;
34499;SDS011;20745;50.882;6.962;2022-08-05T00:48:32;13.30;;;3.65;;
34499;SDS011;20745;50.882;6.962;2022-08-05T00:51:35;13.90;;;4.03;;
34499;SDS011;20745;50.882;6.962;2022-08-05T00:54:26;10.75;;;3.10;;
34499;SDS011;20745;50.882;6.962;2022-08-05T00:57:14;12.43;;;3.80;;
34499;SDS011;20745;50.882;6.962;2022-08-05T00:59:47;10.88;;;3.08;;
34499;SDS011;20745;50.882;6.962;2022-08-05T01:02:14;14.73;;;3.83;;
34499;SDS011;20745;50.882;6.962;2022-08-05T01:04:42;9.52;;;3.10;;
34499;SDS011;20745;50.882;6.962;2022-08-05T01:07:09;10.15;;;3.63;;
34499;SDS011;20745;50.882;6.962;2022-08-05T01:09:39;10.43;;;3.50;;
34499;SDS011;20745;50.882;6.962;2022-08-05T01:12:11;10.70;;;3.80;;
34499;SDS011;20745;50.882;6.962;2022-08-05T01:15:04;10.85;;;3.38;;
34499;SDS011;20745;50.882;6.962;2022-08-05T01:17:59;12.60;;;3.33;;
34499;SDS011;20745;50.882;6.962;2022-08-05T01:27:24;11.20;;;3.35;;
34499;SDS011;20745;50.882;6.962;2022-08-05T01:30:00;8.65;;;2.53;;
34499;SDS011;20745;50.882;6.962;2022-08-05T01:32:47;13.57;;;3.33;;
34499;SDS011;20745;50.882;6.962;2022-08-05T01:35:22;12.65;;;3.70;;
34499;SDS011;20745;50.882;6.962;2022-08-05T01:38:31;15.30;;;3.95;;
34499;SDS011;20745;50.882;6.962;2022-08-05T01:41:01;8.52;;;3.00;;
34499;SDS011;20745;50.882;6.962;2022-08-05T01:43:50;11.93;;;3.35;;
34499;SDS011;20745;50.882;6.962;2022-08-05T01:46:19;11.48;;;3.55;;
34499;SDS011;20745;50.882;6.962;2022-08-05T01:49:26;11.60;;;3.40;;
34499;SDS011;20745;50.882;6.962;2022-08-05T01:54:47;14.23;;;4.18;;
34499;SDS011;20745;50.882;6.962;2022-08-05T01:57:30;15.75;;;3.53;;
34499;SDS011;20745;50.882;6.962;2022-08-05T02:00:19;13.15;;;3.33;;
34499;SDS011;20745;50.882;6.962;2022-08-05T02:02:59;12.88;;;3.38;;
34499;SDS011;20745;50.882;6.962;2022-08-05T02:05:30;11.15;;;3.25;;
34499;SDS011;20745;50.882;6.962;2022-08-05T02:08:03;12.35;;;3.30;;
34499;SDS011;20745;50.882;6.962;2022-08-05T02:10:54;16.10;;;3.90;;
34499;SDS011;20745;50.882;6.962;2022-08-05T02:13:32;13.90;;;3.80;;
34499;SDS011;20745;50.882;6.962;2022-08-05T02:16:40;11.77;;;3.47;;
34499;SDS011;20745;50.882;6.962;2022-08-05T02:19:24;13.00;;;3.85;;
34499;SDS011;20745;50.882;6.962;2022-08-05T02:24:55;15.23;;;4.70;;
34499;SDS011;20745;50.882;6.962;2022-08-05T02:27:46;13.52;;;4.53;;
34499;SDS011;20745;50.882;6.962;2022-08-05T02:30:27;14.70;;;4.93;;
34499;SDS011;20745;50.882;6.962;2022-08-05T02:33:00;15.15;;;5.43;;
34499;SDS011;20745;50.882;6.962;2022-08-05T02:35:28;19.60;;;6.45;;
34499;SDS011;20745;50.882;6.962;2022-08-05T02:38:27;19.92;;;6.95;;
34499;SDS011;20745;50.882;6.962;2022-08-05T02:41:02;28.90;;;8.32;;
34499;SDS011;20745;50.882;6.962;2022-08-05T02:43:52;23.45;;;9.82;;
34499;SDS011;20745;50.882;6.962;2022-08-05T02:46:37;24.80;;;9.23;;
34499;SDS011;20745;50.882;6.962;2022-08-05T02:49:35;22.38;;;9.40;;
34499;SDS011;20745;50.882;6.962;2022-08-05T02:52:09;23.30;;;9.85;;
34499;SDS011;20745;50.882;6.962;2022-08-05T02:55:08;24.92;;;9.18;;
34499;SDS011;20745;50.882;6.962;2022-08-05T02:57:43;23.05;;;9.25;;
34499;SDS011;20745;50.882;6.962;2022-08-05T03:00:51;20.90;;;9.75;;
34499;SDS011;20745;50.882;6.962;2022-08-05T03:03:23;20.30;;;10.25;;
34499;SDS011;20745;50.882;6.962;2022-08-05T03:06:09;25.52;;;10.23;;
34499;SDS011;20745;50.882;6.962;2022-08-05T03:08:57;24.58;;;10.85;;
34499;SDS011;20745;50.882;6.962;2022-08-05T03:11:44;21.67;;;10.60;;
34499;SDS011;20745;50.882;6.962;2022-08-05T03:14:27;25.30;;;11.05;;
34499;SDS011;20745;50.882;6.962;2022-08-05T03:16:56;22.15;;;11.07;;
34499;SDS011;20745;50.882;6.962;2022-08-05T03:19:34;22.75;;;11.38;;
34499;SDS011;20745;50.882;6.962;2022-08-05T03:22:02;22.65;;;11.23;;
34499;SDS011;20745;50.882;6.962;2022-08-05T03:24:42;25.15;;;11.70;;
34499;SDS011;20745;50.882;6.962;2022-08-05T03:27:17;23.83;;;10.93;;
34499;SDS011;20745;50.882;6.962;2022-08-05T03:30:04;23.60;;;11.98;;
34499;SDS011;20745;50.882;6.962;2022-08-05T03:32:35;23.58;;;12.07;;
34499;SDS011;20745;50.882;6.962;2022-08-05T03:35:22;25.98;;;12.05;;
34499;SDS011;20745;50.882;6.962;2022-08-05T03:37:49;22.65;;;12.55;;
34499;SDS011;20745;50.882;6.962;2022-08-05T03:40:38;23.63;;;12.65;;
34499;SDS011;20745;50.882;6.962;2022-08-05T03:43:13;24.85;;;12.52;;
34499;SDS011;20745;50.882;6.962;2022-08-05T03:46:01;22.35;;;11.90;;
34499;SDS011;20745;50.882;6.962;2022-08-05T03:48:29;23.23;;;11.85;;
34499;SDS011;20745;50.882;6.962;2022-08-05T03:57:03;23.77;;;11.40;;
34499;SDS011;20745;50.882;6.962;2022-08-05T03:59:45;22.73;;;12.50;;
34499;SDS011;20745;50.882;6.962;2022-08-05T04:02:30;26.40;;;12.52;;
34499;SDS011;20745;50.882;6.962;2022-08-05T04:05:29;25.75;;;12.57;;
34499;SDS011;20745;50.882;6.962;2022-08-05T04:08:18;25.73;;;12.70;;
34499;SDS011;20745;50.882;6.962;2022-08-05T04:11:02;30.27;;;14.07;;
34499;SDS011;20745;50.882;6.962;2022-08-05T04:13:48;25.70;;;14.38;;
34499;SDS011;20745;50.882;6.962;2022-08-05T04:16:19;23.85;;;13.43;;
34499;SDS011;20745;50.882;6.962;2022-08-05T04:19:10;27.35;;;13.63;;
34499;SDS011;20745;50.882;6.962;2022-08-05T04:21:38;26.63;;;14.23;;
34499;SDS011;20745;50.882;6.962;2022-08-05T04:24:44;25.17;;;13.43;;
34499;SDS011;20745;50.882;6.962;2022-08-05T04:27:19;28.23;;;14.20;;
34499;SDS011;20745;50.882;6.962;2022-08-05T04:30:24;28.13;;;14.30;;
34499;SDS011;20745;50.882;6.962;2022-08-05T04:32:52;28.20;;;13.80;;
34499;SDS011;20745;50.882;6.962;2022-08-05T04:35:19;25.60;;;14.63;;
34499;SDS011;20745;50.882;6.962;2022-08-05T04:37:49;27.30;;;14.55;;
34499;SDS011;20745;50.882;6.962;2022-08-05T04:40:38;26.50;;;16.17;;
34499;SDS011;20745;50.882;6.962;2022-08-05T04:43:14;32.53;;;17.48;;
34499;SDS011;20745;50.882;6.962;2022-08-05T04:46:00;27.67;;;15.90;;
34499;SDS011;20745;50.882;6.962;2022-08-05T04:48:31;30.48;;;17.55;;
34499;SDS011;20745;50.882;6.962;2022-08-05T04:51:16;37.72;;;19.52;;
34499;SDS011;20745;50.882;6.962;2022-08-05T04:53:43;31.90;;;17.92;;
34499;SDS011;20745;50.882;6.962;2022-08-05T04:56:11;33.78;;;17.75;;
34499;SDS011;20745;50.882;6.962;2022-08-05T04:59:00;35.08;;;16.95;;
34499;SDS011;20745;50.882;6.962;2022-08-05T05:01:48;29.20;;;17.00;;
34499;SDS011;20745;50.882;6.962;2022-08-05T05:04:36;33.10;;;16.70;;
34499;SDS011;20745;50.882;6.962;2022-08-05T05:07:04;31.15;;;17.58;;
34499;SDS011;20745;50.882;6.962;2022-08-05T05:09:38;28.83;;;17.38;;
34499;SDS011;20745;50.882;6.962;2022-08-05T05:12:24;34.17;;;19.08;;
34499;SDS011;20745;50.882;6.962;2022-08-05T05:14:53;34.85;;;18.92;;
34499;SDS011;20745;50.882;6.962;2022-08-05T05:17:39;30.55;;;18.92;;
34499;SDS011;20745;50.882;6.962;2022-08-05T05:20:23;30.25;;;18.98;;
34499;SDS011;20745;50.882;6.962;2022-08-05T05:23:01;33.45;;;19.92;;
34499;SDS011;20745;50.882;6.962;2022-08-05T05:25:34;33.00;;;20.00;;
34499;SDS011;20745;50.882;6.962;2022-08-05T05:28:07;33.20;;;20.13;;
34499;SDS011;20745;50.882;6.962;2022-08-05T05:30:36;32.90;;;20.98;;
34499;SDS011;20745;50.882;6.962;2022-08-05T05:33:13;32.15;;;19.70;;
34499;SDS011;20745;50.882;6.962;2022-08-05T05:35:44;35.75;;;21.40;;
34499;SDS011;20745;50.882;6.962;2022-08-05T05:38:12;34.10;;;20.63;;
34499;SDS011;20745;50.882;6.962;2022-08-05T05:40:40;32.88;;;20.65;;
34499;SDS011;20745;50.882;6.962;2022-08-05T05:43:25;31.92;;;20.40;;
34499;SDS011;20745;50.882;6.962;2022-08-05T05:46:30;29.08;;;19.23;;
34499;SDS011;20745;50.882;6.962;2022-08-05T05:49:04;29.27;;;18.38;;
34499;SDS011;20745;50.882;6.962;2022-08-05T05:51:48;30.38;;;20.58;;
34499;SDS011;20745;50.882;6.962;2022-08-05T05:54:19;30.60;;;19.67;;
34499;SDS011;20745;50.882;6.962;2022-08-05T05:56:46;32.17;;;21.55;;
34499;SDS011;20745;50.882;6.962;2022-08-05T05:59:14;34.88;;;21.52;;
34499;SDS011;20745;50.882;6.962;2022-08-05T06:01:41;32.63;;;21.00;;
34499;SDS011;20745;50.882;6.962;2022-08-05T06:04:23;34.80;;;22.00;;
34499;SDS011;20745;50.882;6.962;2022-08-05T06:06:51;35.88;;;20.67;;
34499;SDS011;20745;50.882;6.962;2022-08-05T06:09:19;33.55;;;22.48;;
34499;SDS011;20745;50.882;6.962;2022-08-05T06:11:52;35.90;;;22.15;;
34499;SDS011;20745;50.882;6.962;2022-08-05T06:14:38;31.33;;;22.58;;
34499;SDS011;20745;50.882;6.962;2022-08-05T06:17:07;32.90;;;22.23;;
34499;SDS011;20745;50.882;6.962;2022-08-05T06:19:50;34.38;;;23.02;;
34499;SDS011;20745;50.882;6.962;2022-08-05T06:22:26;33.17;;;23.02;;
34499;SDS011;20745;50.882;6.962;2022-08-05T06:25:02;34.53;;;23.17;;
34499;SDS011;20745;50.882;6.962;2022-08-05T06:27:50;33.83;;;23.85;;
34499;SDS011;20745;50.882;6.962;2022-08-05T06:30:37;33.80;;;24.38;;
34499;SDS011;20745;50.882;6.962;2022-08-05T06:33:05;35.45;;;24.85;;
34499;SDS011;20745;50.882;6.962;2022-08-05T06:35:37;39.63;;;27.35;;
34499;SDS011;20745;50.882;6.962;2022-08-05T06:38:24;42.50;;;30.13;;
34499;SDS011;20745;50.882;6.962;2022-08-05T06:41:03;45.42;;;31.80;;
34499;SDS011;20745;50.882;6.962;2022-08-05T06:43:34;52.08;;;34.47;;
34499;SDS011;20745;50.882;6.962;2022-08-05T06:46:22;53.53;;;36.25;;
34499;SDS011;20745;50.882;6.962;2022-08-05T06:49:14;60.50;;;37.38;;
34499;SDS011;20745;50.882;6.962;2022-08-05T06:51:46;58.65;;;38.17;;
34499;SDS011;20745;50.882;6.962;2022-08-05T06:54:31;61.35;;;37.72;;
34499;SDS011;20745;50.882;6.962;2022-08-05T06:57:01;63.25;;;41.38;;
34499;SDS011;20745;50.882;6.962;2022-08-05T07:00:07;64.60;;;40.45;;
34499;SDS011;20745;50.882;6.962;2022-08-05T07:02:45;67.45;;;41.00;;
34499;SDS011;20745;50.882;6.962;2022-08-05T07:05:19;62.78;;;40.30;;
34499;SDS011;20745;50.882;6.962;2022-08-05T07:07:57;68.05;;;40.22;;
34499;SDS011;20745;50.882;6.962;2022-08-05T07:10:25;61.05;;;39.70;;
34499;SDS011;20745;50.882;6.962;2022-08-05T07:12:59;68.43;;;41.08;;
34499;SDS011;20745;50.882;6.962;2022-08-05T07:16:05;63.63;;;39.70;;
34499;SDS011;20745;50.882;6.962;2022-08-05T07:19:10;69.82;;;39.30;;
34499;SDS011;20745;50.882;6.962;2022-08-05T07:21:42;63.22;;;39.05;;
34499;SDS011;20745;50.882;6.962;2022-08-05T07:24:29;63.22;;;40.03;;
34499;SDS011;20745;50.882;6.962;2022-08-05T07:27:15;66.18;;;41.25;;
34499;SDS011;20745;50.882;6.962;2022-08-05T07:29:43;66.57;;;41.63;;
34499;SDS011;20745;50.882;6.962;2022-08-05T07:32:48;65.70;;;41.47;;
34499;SDS011;20745;50.882;6.962;2022-08-05T07:35:19;70.18;;;42.40;;
34499;SDS011;20745;50.882;6.962;2022-08-05T07:38:25;76.85;;;43.72;;
34499;SDS011;20745;50.882;6.962;2022-08-05T07:41:04;73.53;;;43.95;;
34499;SDS011;20745;50.882;6.962;2022-08-05T07:44:11;81.80;;;46.97;;
34499;SDS011;20745;50.882;6.962;2022-08-05T07:46:46;80.13;;;46.70;;
34499;SDS011;20745;50.882;6.962;2022-08-05T07:49:34;79.25;;;46.30;;
34499;SDS011;20745;50.882;6.962;2022-08-05T07:52:20;76.78;;;45.63;;
34499;SDS011;20745;50.882;6.962;2022-08-05T07:54:52;77.47;;;46.70;;
34499;SDS011;20745;50.882;6.962;2022-08-05T07:57:19;77.00;;;46.55;;
34499;SDS011;20745;50.882;6.962;2022-08-05T08:00:06;89.78;;;53.33;;
34499;SDS011;20745;50.882;6.962;2022-08-05T08:02:37;85.95;;;52.10;;
34499;SDS011;20745;50.882;6.962;2022-08-05T08:05:27;86.47;;;51.17;;
34499;SDS011;20745;50.882;6.962;2022-08-05T08:07:54;83.18;;;50.17;;
34499;SDS011;20745;50.882;6.962;2022-08-05T08:10:44;79.68;;;48.40;;
34499;SDS011;20745;50.882;6.962;2022-08-05T08:13:16;75.80;;;48.85;;
34499;SDS011;20745;50.882;6.962;2022-08-05T08:16:13;78.40;;;47.08;;
34499;SDS011;20745;50.882;6.962;2022-08-05T08:19:00;78.03;;;46.40;;
34499;SDS011;20745;50.882;6.962;2022-08-05T08:21:27;79.25;;;45.70;;
34499;SDS011;20745;50.882;6.962;2022-08-05T08:23:55;76.78;;;46.22;;
34499;SDS011;20745;50.882;6.962;2022-08-05T08:26:30;65.07;;;40.30;;
34499;SDS011;20745;50.882;6.962;2022-08-05T08:28:58;55.28;;;34.03;;
34499;SDS011;20745;50.882;6.962;2022-08-05T08:31:49;48.00;;;31.00;;
34499;SDS011;20745;50.882;6.962;2022-08-05T08:34:18;50.30;;;29.00;;
34499;SDS011;20745;50.882;6.962;2022-08-05T08:37:15;44.13;;;27.25;;
34499;SDS011;20745;50.882;6.962;2022-08-05T08:39:44;43.05;;;26.98;;
34499;SDS011;20745;50.882;6.962;2022-08-05T08:42:33;43.90;;;26.80;;
34499;SDS011;20745;50.882;6.962;2022-08-05T08:45:19;43.40;;;27.55;;
34499;SDS011;20745;50.882;6.962;2022-08-05T08:47:58;48.75;;;30.27;;
34499;SDS011;20745;50.882;6.962;2022-08-05T08:50:50;50.80;;;33.22;;
34499;SDS011;20745;50.882;6.962;2022-08-05T08:53:38;48.75;;;33.83;;
34499;SDS011;20745;50.882;6.962;2022-08-05T08:56:11;52.67;;;34.33;;
34499;SDS011;20745;50.882;6.962;2022-08-05T08:58:38;54.55;;;35.20;;
34499;SDS011;20745;50.882;6.962;2022-08-05T09:01:13;59.08;;;36.17;;
34499;SDS011;20745;50.882;6.962;2022-08-05T09:06:40;54.60;;;36.55;;
34499;SDS011;20745;50.882;6.962;2022-08-05T09:09:07;56.40;;;36.42;;
34499;SDS011;20745;50.882;6.962;2022-08-05T09:11:53;55.78;;;38.17;;
34499;SDS011;20745;50.882;6.962;2022-08-05T09:14:34;59.45;;;38.53;;
34499;SDS011;20745;50.882;6.962;2022-08-05T09:17:40;60.72;;;40.15;;
34499;SDS011;20745;50.882;6.962;2022-08-05T09:20:15;55.40;;;37.83;;
34499;SDS011;20745;50.882;6.962;2022-08-05T09:23:20;55.78;;;37.42;;
34499;SDS011;20745;50.882;6.962;2022-08-05T09:25:50;52.25;;;35.60;;
34499;SDS011;20745;50.882;6.962;2022-08-05T09:28:29;52.20;;;36.13;;
34499;SDS011;20745;50.882;6.962;2022-08-05T09:33:57;48.15;;;33.33;;
34499;SDS011;20745;50.882;6.962;2022-08-05T09:36:39;46.75;;;30.42;;
34499;SDS011;20745;50.882;6.962;2022-08-05T09:39:21;39.92;;;26.02;;
34499;SDS011;20745;50.882;6.962;2022-08-05T09:42:10;35.55;;;23.15;;
34499;SDS011;20745;50.882;6.962;2022-08-05T09:45:04;32.33;;;21.33;;
34499;SDS011;20745;50.882;6.962;2022-08-05T09:47:52;31.40;;;20.40;;
34499;SDS011;20745;50.882;6.962;2022-08-05T09:50:41;34.13;;;19.65;;
34499;SDS011;20745;50.882;6.962;2022-08-05T09:53:11;28.98;;;18.83;;
34499;SDS011;20745;50.882;6.962;2022-08-05T09:56:08;29.52;;;18.30;;
34499;SDS011;20745;50.882;6.962;2022-08-05T09:58:39;26.02;;;16.70;;
34499;SDS011;20745;50.882;6.962;2022-08-05T10:01:26;25.33;;;15.18;;
34499;SDS011;20745;50.882;6.962;2022-08-05T10:04:00;26.42;;;15.23;;
34499;SDS011;20745;50.882;6.962;2022-08-05T10:06:40;24.98;;;14.30;;
34499;SDS011;20745;50.882;6.962;2022-08-05T10:09:29;24.13;;;13.32;;
34499;SDS011;20745;50.882;6.962;2022-08-05T10:12:16;25.17;;;12.77;;
34499;SDS011;20745;50.882;6.962;2022-08-05T10:15:31;24.30;;;13.45;;
34499;SDS011;20745;50.882;6.962;2022-08-05T10:18:08;21.55;;;11.32;;
34499;SDS011;20745;50.882;6.962;2022-08-05T10:23:10;20.02;;;12.45;;
34499;SDS011;20745;50.882;6.962;2022-08-05T10:26:04;23.70;;;11.15;;
34499;SDS011;20745;50.882;6.962;2022-08-05T10:28:57;19.70;;;11.52;;
34499;SDS011;20745;50.882;6.962;2022-08-05T10:31:31;21.63;;;11.80;;
34499;SDS011;20745;50.882;6.962;2022-08-05T10:34:36;21.25;;;11.85;;
34499;SDS011;20745;50.882;6.962;2022-08-05T10:37:07;21.88;;;10.70;;
34499;SDS011;20745;50.882;6.962;2022-08-05T10:39:53;19.63;;;10.35;;
34499;SDS011;20745;50.882;6.962;2022-08-05T10:42:43;17.38;;;8.60;;
34499;SDS011;20745;50.882;6.962;2022-08-05T10:45:23;17.73;;;9.13;;
34499;SDS011;20745;50.882;6.962;2022-08-05T10:51:17;19.98;;;8.40;;
34499;SDS011;20745;50.882;6.962;2022-08-05T10:56:21;16.17;;;6.60;;
34499;SDS011;20745;50.882;6.962;2022-08-05T11:01:30;14.63;;;6.18;;
34499;SDS011;20745;50.882;6.962;2022-08-05T11:04:22;17.05;;;6.18;;
34499;SDS011;20745;50.882;6.962;2022-08-05T11:07:03;17.27;;;7.20;;
34499;SDS011;20745;50.882;6.962;2022-08-05T11:09:42;16.38;;;6.72;;
34499;SDS011;20745;50.882;6.962;2022-08-05T11:15:21;19.15;;;5.95;;
34499;SDS011;20745;50.882;6.962;2022-08-05T11:18:32;16.58;;;6.15;;
34499;SDS011;20745;50.882;6.962;2022-08-05T11:21:00;18.58;;;5.20;;
34499;SDS011;20745;50.882;6.962;2022-08-05T11:23:56;16.65;;;5.25;;
34499;SDS011;20745;50.882;6.962;2022-08-05T11:26:43;13.68;;;4.53;;
34499;SDS011;20745;50.882;6.962;2022-08-05T11:29:37;14.15;;;5.05;;
34499;SDS011;20745;50.882;6.962;2022-08-05T11:32:28;12.60;;;4.18;;
34499;SDS011;20745;50.882;6.962;2022-08-05T11:41:34;11.05;;;3.78;;
34499;SDS011;20745;50.882;6.962;2022-08-05T11:44:23;13.30;;;4.60;;
34499;SDS011;20745;50.882;6.962;2022-08-05T11:47:27;16.65;;;4.80;;
34499;SDS011;20745;50.882;6.962;2022-08-05T11:50:15;18.98;;;5.07;;
34499;SDS011;20745;50.882;6.962;2022-08-05T11:53:03;13.27;;;4.95;;
34499;SDS011;20745;50.882;6.962;2022-08-05T11:55:36;16.25;;;5.25;;
34499;SDS011;20745;50.882;6.962;2022-08-05T11:58:03;15.70;;;4.80;;
34499;SDS011;20745;50.882;6.962;2022-08-05T12:00:37;12.48;;;3.95;;
34499;SDS011;20745;50.882;6.962;2022-08-05T12:03:19;13.55;;;4.50;;
34499;SDS011;20745;50.882;6.962;2022-08-05T12:06:00;13.55;;;4.00;;
34499;SDS011;20745;50.882;6.962;2022-08-05T12:08:46;8.38;;;2.78;;
34499;SDS011;20745;50.882;6.962;2022-08-05T12:11:24;10.68;;;3.33;;
34499;SDS011;20745;50.882;6.962;2022-08-05T12:14:19;10.48;;;3.22;;
34499;SDS011;20745;50.882;6.962;2022-08-05T12:16:52;12.68;;;3.35;;
34499;SDS011;20745;50.882;6.962;2022-08-05T12:19:40;9.27;;;3.08;;
34499;SDS011;20745;50.882;6.962;2022-08-05T12:22:31;10.02;;;3.22;;
34499;SDS011;20745;50.882;6.962;2022-08-05T12:25:17;10.32;;;2.50;;
34499;SDS011;20745;50.882;6.962;2022-08-05T12:27:46;8.82;;;2.60;;
34499;SDS011;20745;50.882;6.962;2022-08-05T12:30:37;9.38;;;2.78;;
34499;SDS011;20745;50.882;6.962;2022-08-05T12:33:11;8.82;;;2.75;;
34499;SDS011;20745;50.882;6.962;2022-08-05T12:35:54;11.70;;;3.42;;
34499;SDS011;20745;50.882;6.962;2022-08-05T12:38:22;10.80;;;3.20;;
34499;SDS011;20745;50.882;6.962;2022-08-05T12:40:57;11.02;;;3.20;;
34499;SDS011;20745;50.882;6.962;2022-08-05T12:43:25;9.75;;;2.83;;
34499;SDS011;20745;50.882;6.962;2022-08-05T12:46:24;7.50;;;2.60;;
34499;SDS011;20745;50.882;6.962;2022-08-05T12:49:19;8.98;;;2.40;;
34499;SDS011;20745;50.882;6.962;2022-08-05T12:52:11;6.73;;;2.50;;
34499;SDS011;20745;50.882;6.962;2022-08-05T12:54:54;10.95;;;2.63;;
34499;SDS011;20745;50.882;6.962;2022-08-05T12:57:40;7.50;;;2.47;;
34499;SDS011;20745;50.882;6.962;2022-08-05T13:00:27;11.57;;;3.25;;
34499;SDS011;20745;50.882;6.962;2022-08-05T13:03:37;7.47;;;2.58;;
34499;SDS011;20745;50.882;6.962;2022-08-05T13:06:13;11.35;;;3.20;;
34499;SDS011;20745;50.882;6.962;2022-08-05T13:09:04;8.70;;;2.70;;
34499;SDS011;20745;50.882;6.962;2022-08-05T13:11:36;8.68;;;2.50;;
34499;SDS011;20745;50.882;6.962;2022-08-05T13:14:45;10.00;;;3.13;;
34499;SDS011;20745;50.882;6.962;2022-08-05T13:17:33;9.53;;;2.77;;
34499;SDS011;20745;50.882;6.962;2022-08-05T13:20:33;13.35;;;3.70;;
34499;SDS011;20745;50.882;6.962;2022-08-05T13:23:13;9.77;;;3.67;;
34499;SDS011;20745;50.882;6.962;2022-08-05T13:25:42;10.13;;;3.15;;
34499;SDS011;20745;50.882;6.962;2022-08-05T13:28:26;8.73;;;3.45;;
34499;SDS011;20745;50.882;6.962;2022-08-05T13:30:57;14.07;;;3.50;;
34499;SDS011;20745;50.882;6.962;2022-08-05T13:33:31;12.95;;;4.05;;
34499;SDS011;20745;50.882;6.962;2022-08-05T13:36:21;15.02;;;4.18;;
34499;SDS011;20745;50.882;6.962;2022-08-05T13:38:50;9.00;;;2.92;;
34499;SDS011;20745;50.882;6.962;2022-08-05T13:41:38;8.90;;;2.80;;
34499;SDS011;20745;50.882;6.962;2022-08-05T13:44:06;11.80;;;3.47;;
34499;SDS011;20745;50.882;6.962;2022-08-05T13:46:54;12.73;;;3.63;;
34499;SDS011;20745;50.882;6.962;2022-08-05T13:49:30;8.90;;;3.70;;
34499;SDS011;20745;50.882;6.962;2022-08-05T13:52:23;12.15;;;3.60;;
34499;SDS011;20745;50.882;6.962;2022-08-05T13:54:55;10.63;;;3.67;;
34499;SDS011;20745;50.882;6.962;2022-08-05T13:57:26;13.00;;;3.85;;
34499;SDS011;20745;50.882;6.962;2022-08-05T14:00:22;10.63;;;3.63;;
34499;SDS011;20745;50.882;6.962;2022-08-05T14:02:54;11.80;;;3.78;;
34499;SDS011;20745;50.882;6.962;2022-08-05T14:05:22;9.52;;;3.42;;
34499;SDS011;20745;50.882;6.962;2022-08-05T14:08:28;10.57;;;3.67;;
34499;SDS011;20745;50.882;6.962;2022-08-05T14:11:01;12.75;;;4.07;;
34499;SDS011;20745;50.882;6.962;2022-08-05T14:14:04;14.75;;;4.45;;
34499;SDS011;20745;50.882;6.962;2022-08-05T14:16:31;10.98;;;4.45;;
34499;SDS011;20745;50.882;6.962;2022-08-05T14:19:18;12.50;;;4.15;;
34499;SDS011;20745;50.882;6.962;2022-08-05T14:21:48;13.90;;;4.07;;
34499;SDS011;20745;50.882;6.962;2022-08-05T14:24:54;13.13;;;4.20;;
34499;SDS011;20745;50.882;6.962;2022-08-05T14:27:21;11.98;;;3.80;;
34499;SDS011;20745;50.882;6.962;2022-08-05T14:29:48;14.88;;;4.63;;
34499;SDS011;20745;50.882;6.962;2022-08-05T14:32:17;12.77;;;3.88;;
34499;SDS011;20745;50.882;6.962;2022-08-05T14:34:53;12.35;;;3.65;;
34499;SDS011;20745;50.882;6.962;2022-08-05T14:37:23;14.90;;;4.03;;
34499;SDS011;20745;50.882;6.962;2022-08-05T14:40:29;13.90;;;3.55;;
34499;SDS011;20745;50.882;6.962;2022-08-05T14:42:56;11.70;;;3.13;;
34499;SDS011;20745;50.882;6.962;2022-08-05T14:45:24;13.40;;;3.38;;
34499;SDS011;20745;50.882;6.962;2022-08-05T14:47:52;13.13;;;3.42;;
34499;SDS011;20745;50.882;6.962;2022-08-05T14:50:30;13.20;;;3.38;;
34499;SDS011;20745;50.882;6.962;2022-08-05T14:52:57;8.38;;;2.90;;
34499;SDS011;20745;50.882;6.962;2022-08-05T14:55:33;12.70;;;3.80;;
34499;SDS011;20745;50.882;6.962;2022-08-05T14:58:17;9.63;;;3.05;;
34499;SDS011;20745;50.882;6.962;2022-08-05T15:00:44;11.63;;;2.90;;
34499;SDS011;20745;50.882;6.962;2022-08-05T15:06:15;5.90;;;1.98;;
34499;SDS011;20745;50.882;6.962;2022-08-05T15:09:00;6.20;;;1.77;;
34499;SDS011;20745;50.882;6.962;2022-08-05T15:11:33;7.20;;;2.10;;
34499;SDS011;20745;50.882;6.962;2022-08-05T15:14:37;5.53;;;1.08;;
34499;SDS011;20745;50.882;6.962;2022-08-05T15:17:15;6.78;;;1.23;;
34499;SDS011;20745;50.882;6.962;2022-08-05T15:20:06;4.07;;;1.52;;
34499;SDS011;20745;50.882;6.962;2022-08-05T15:22:46;5.57;;;1.30;;
34499;SDS011;20745;50.882;6.962;2022-08-05T15:25:23;8.27;;;1.50;;
34499;SDS011;20745;50.882;6.962;2022-08-05T15:28:12;7.88;;;1.90;;
34499;SDS011;20745;50.882;6.962;2022-08-05T15:30:42;6.13;;;1.70;;
34499;SDS011;20745;50.882;6.962;2022-08-05T15:33:12;7.38;;;1.48;;
34499;SDS011;20745;50.882;6.962;2022-08-05T15:36:18;7.03;;;1.27;;
34499;SDS011;20745;50.882;6.962;2022-08-05T15:38:51;4.75;;;1.50;;
34499;SDS011;20745;50.882;6.962;2022-08-05T15:41:57;5.32;;;1.48;;
34499;SDS011;20745;50.882;6.962;2022-08-05T15:44:26;6.60;;;1.30;;
34499;SDS011;20745;50.882;6.962;2022-08-05T15:47:14;8.80;;;1.65;;
34499;SDS011;20745;50.882;6.962;2022-08-05T15:49:42;4.88;;;1.60;;
34499;SDS011;20745;50.882;6.962;2022-08-05T15:52:42;11.45;;;1.80;;
34499;SDS011;20745;50.882;6.962;2022-08-05T15:55:21;5.45;;;1.50;;
34499;SDS011;20745;50.882;6.962;2022-08-05T15:57:51;7.82;;;1.50;;
34499;SDS011;20745;50.882;6.962;2022-08-05T16:00:18;6.75;;;1.40;;
34499;SDS011;20745;50.882;6.962;2022-08-05T16:03:09;8.40;;;1.70;;
34499;SDS011;20745;50.882;6.962;2022-08-05T16:05:36;4.47;;;1.50;;
34499;SDS011;20745;50.882;6.962;2022-08-05T16:08:23;6.95;;;1.75;;
34499;SDS011;20745;50.882;6.962;2022-08-05T16:10:57;3.20;;;1.40;;
34499;SDS011;20745;50.882;6.962;2022-08-05T16:13:42;6.07;;;1.50;;
34499;SDS011;20745;50.882;6.962;2022-08-05T16:16:11;7.43;;;1.83;;
34499;SDS011;20745;50.882;6.962;2022-08-05T16:19:05;8.60;;;1.60;;
34499;SDS011;20745;50.882;6.962;2022-08-05T16:21:35;5.68;;;1.42;;
34499;SDS011;20745;50.882;6.962;2022-08-05T16:24:40;8.90;;;1.50;;
34499;SDS011;20745;50.882;6.962;2022-08-05T16:27:24;5.80;;;1.90;;
34499;SDS011;20745;50.882;6.962;2022-08-05T16:30:13;6.10;;;1.60;;
34499;SDS011;20745;50.882;6.962;2022-08-05T16:32:52;8.38;;;1.95;;
34499;SDS011;20745;50.882;6.962;2022-08-05T16:35:21;7.28;;;1.80;;
34499;SDS011;20745;50.882;6.962;2022-08-05T16:37:54;7.68;;;2.20;;
34499;SDS011;20745;50.882;6.962;2022-08-05T16:40:45;8.85;;;2.22;;